sensor_id;sensor_type;location;lat;lon;timestamp;P1;durP1;ratioP1;P2;durP2;ratioP2
58659;SDS011;44429;45.110;20.622;2022-11-23T00:01:24;0.10;;;0.10;;
58659;SDS011;44429;45.110;20.622;2022-11-23T00:03:51;0.93;;;0.55;;
58659;SDS011;44429;45.110;20.622;2022-11-23T00:06:17;0.40;;;0.20;;
58659;SDS011;44429;45.110;20.622;2022-11-23T00:08:45;0.80;;;0.32;;
58659;SDS011;44429;45.110;20.622;2022-11-23T00:11:12;0.20;;;0.15;;
58659;SDS011;44429;45.110;20.622;2022-11-23T00:13:38;7.93;;;0.40;;
58659;SDS011;44429;45.110;20.622;2022-11-23T00:16:05;2.17;;;0.85;;
58659;SDS011;44429;45.110;20.622;2022-11-23T00:18:31;0.22;;;0.10;;
58659;SDS011;44429;45.110;20.622;2022-11-23T00:20:57;0.38;;;0.13;;
58659;SDS011;44429;45.110;20.622;2022-11-23T00:23:24;1.55;;;0.28;;
58659;SDS011;44429;45.110;20.622;2022-11-23T00:25:50;1.17;;;0.45;;
58659;SDS011;44429;45.110;20.622;2022-11-23T00:28:16;2.80;;;0.73;;
58659;SDS011;44429;45.110;20.622;2022-11-23T00:30:46;0.55;;;0.10;;
58659;SDS011;44429;45.110;20.622;2022-11-23T00:33:13;1.13;;;0.60;;
58659;SDS011;44429;45.110;20.622;2022-11-23T00:35:39;0.00;;;0.00;;
58659;SDS011;44429;45.110;20.622;2022-11-23T00:38:05;5.63;;;1.13;;
58659;SDS011;44429;45.110;20.622;2022-11-23T00:40:31;1.23;;;0.45;;
58659;SDS011;44429;45.110;20.622;2022-11-23T00:42:57;0.75;;;0.55;;
58659;SDS011;44429;45.110;20.622;2022-11-23T00:45:23;1.13;;;0.63;;
58659;SDS011;44429;45.110;20.622;2022-11-23T00:47:49;0.77;;;0.35;;
58659;SDS011;44429;45.110;20.622;2022-11-23T00:50:16;0.75;;;0.30;;
58659;SDS011;44429;45.110;20.622;2022-11-23T00:52:42;4.38;;;0.63;;
58659;SDS011;44429;45.110;20.622;2022-11-23T00:55:08;3.60;;;1.52;;
58659;SDS011;44429;45.110;20.622;2022-11-23T00:57:34;2.47;;;0.98;;
58659;SDS011;44429;45.110;20.622;2022-11-23T01:00:00;1.17;;;0.50;;
58659;SDS011;44429;45.110;20.622;2022-11-23T01:02:26;3.22;;;0.82;;
58659;SDS011;44429;45.110;20.622;2022-11-23T01:04:52;0.75;;;0.30;;
58659;SDS011;44429;45.110;20.622;2022-11-23T01:07:19;1.13;;;0.35;;
58659;SDS011;44429;45.110;20.622;2022-11-23T01:09:45;3.63;;;1.13;;
58659;SDS011;44429;45.110;20.622;2022-11-23T01:12:11;1.13;;;0.22;;
58659;SDS011;44429;45.110;20.622;2022-11-23T01:14:37;1.77;;;0.73;;
58659;SDS011;44429;45.110;20.622;2022-11-23T01:17:03;2.67;;;0.93;;
58659;SDS011;44429;45.110;20.622;2022-11-23T01:19:29;0.40;;;0.15;;
58659;SDS011;44429;45.110;20.622;2022-11-23T01:21:55;0.55;;;0.22;;
58659;SDS011;44429;45.110;20.622;2022-11-23T01:24:21;0.50;;;0.20;;
58659;SDS011;44429;45.110;20.622;2022-11-23T01:26:51;2.03;;;0.40;;
58659;SDS011;44429;45.110;20.622;2022-11-23T01:29:17;0.45;;;0.20;;
58659;SDS011;44429;45.110;20.622;2022-11-23T01:31:43;0.15;;;0.10;;
58659;SDS011;44429;45.110;20.622;2022-11-23T01:34:10;1.08;;;0.43;;
58659;SDS011;44429;45.110;20.622;2022-11-23T01:36:37;1.55;;;0.80;;
58659;SDS011;44429;45.110;20.622;2022-11-23T01:39:03;0.45;;;0.25;;
58659;SDS011;44429;45.110;20.622;2022-11-23T01:41:30;0.52;;;0.30;;
58659;SDS011;44429;45.110;20.622;2022-11-23T01:43:57;2.00;;;0.60;;
58659;SDS011;44429;45.110;20.622;2022-11-23T01:46:23;1.05;;;0.55;;
58659;SDS011;44429;45.110;20.622;2022-11-23T01:49:02;1.30;;;0.50;;
58659;SDS011;44429;45.110;20.622;2022-11-23T01:51:35;0.77;;;0.40;;
58659;SDS011;44429;45.110;20.622;2022-11-23T01:55:02;0.00;;;0.00;;
58659;SDS011;44429;45.110;20.622;2022-11-23T01:56:59;0.20;;;0.10;;
58659;SDS011;44429;45.110;20.622;2022-11-23T01:59:27;0.55;;;0.20;;
58659;SDS011;44429;45.110;20.622;2022-11-23T02:01:55;0.75;;;0.30;;
58659;SDS011;44429;45.110;20.622;2022-11-23T02:04:22;0.55;;;0.20;;
58659;SDS011;44429;45.110;20.622;2022-11-23T02:06:50;3.65;;;0.77;;
58659;SDS011;44429;45.110;20.622;2022-11-23T02:09:17;1.35;;;0.52;;
58659;SDS011;44429;45.110;20.622;2022-11-23T02:11:43;0.28;;;0.20;;
58659;SDS011;44429;45.110;20.622;2022-11-23T02:14:10;0.88;;;0.43;;
58659;SDS011;44429;45.110;20.622;2022-11-23T02:16:36;1.70;;;0.57;;
58659;SDS011;44429;45.110;20.622;2022-11-23T02:19:03;1.35;;;0.52;;
58659;SDS011;44429;45.110;20.622;2022-11-23T02:21:31;0.28;;;0.10;;
58659;SDS011;44429;45.110;20.622;2022-11-23T02:24:02;0.85;;;0.52;;
58659;SDS011;44429;45.110;20.622;2022-11-23T02:31:22;3.25;;;1.00;;
58659;SDS011;44429;45.110;20.622;2022-11-23T02:33:48;0.40;;;0.22;;
58659;SDS011;44429;45.110;20.622;2022-11-23T02:36:30;0.52;;;0.28;;
58659;SDS011;44429;45.110;20.622;2022-11-23T02:39:00;3.30;;;1.80;;
58659;SDS011;44429;45.110;20.622;2022-11-23T02:41:33;1.92;;;0.50;;
58659;SDS011;44429;45.110;20.622;2022-11-23T02:43:59;2.53;;;0.77;;
58659;SDS011;44429;45.110;20.622;2022-11-23T02:46:25;2.42;;;0.85;;
58659;SDS011;44429;45.110;20.622;2022-11-23T02:48:51;5.10;;;0.40;;
58659;SDS011;44429;45.110;20.622;2022-11-23T02:51:17;1.25;;;0.47;;
58659;SDS011;44429;45.110;20.622;2022-11-23T02:53:43;0.52;;;0.50;;
58659;SDS011;44429;45.110;20.622;2022-11-23T02:56:09;6.80;;;1.33;;
58659;SDS011;44429;45.110;20.622;2022-11-23T02:58:35;2.13;;;0.98;;
58659;SDS011;44429;45.110;20.622;2022-11-23T03:01:02;0.90;;;0.40;;
58659;SDS011;44429;45.110;20.622;2022-11-23T03:03:28;1.42;;;0.47;;
58659;SDS011;44429;45.110;20.622;2022-11-23T03:05:54;4.70;;;1.65;;
58659;SDS011;44429;45.110;20.622;2022-11-23T03:08:20;0.47;;;0.13;;
58659;SDS011;44429;45.110;20.622;2022-11-23T03:10:46;2.75;;;0.60;;
58659;SDS011;44429;45.110;20.622;2022-11-23T03:13:12;0.73;;;0.47;;
58659;SDS011;44429;45.110;20.622;2022-11-23T03:15:39;0.63;;;0.28;;
58659;SDS011;44429;45.110;20.622;2022-11-23T03:18:05;2.22;;;1.27;;
58659;SDS011;44429;45.110;20.622;2022-11-23T03:20:31;1.13;;;0.63;;
58659;SDS011;44429;45.110;20.622;2022-11-23T03:22:57;1.65;;;0.77;;
58659;SDS011;44429;45.110;20.622;2022-11-23T03:25:23;2.03;;;0.80;;
58659;SDS011;44429;45.110;20.622;2022-11-23T03:27:49;3.03;;;1.13;;
58659;SDS011;44429;45.110;20.622;2022-11-23T03:30:15;0.85;;;0.20;;
58659;SDS011;44429;45.110;20.622;2022-11-23T03:32:41;0.55;;;0.17;;
58659;SDS011;44429;45.110;20.622;2022-11-23T03:35:07;1.55;;;0.40;;
58659;SDS011;44429;45.110;20.622;2022-11-23T03:37:34;1.00;;;0.45;;
58659;SDS011;44429;45.110;20.622;2022-11-23T03:40:00;2.50;;;1.60;;
58659;SDS011;44429;45.110;20.622;2022-11-23T03:42:26;1.27;;;0.55;;
58659;SDS011;44429;45.110;20.622;2022-11-23T03:44:52;3.55;;;1.30;;
58659;SDS011;44429;45.110;20.622;2022-11-23T03:47:18;1.42;;;0.68;;
58659;SDS011;44429;45.110;20.622;2022-11-23T03:49:44;1.00;;;0.38;;
58659;SDS011;44429;45.110;20.622;2022-11-23T03:52:10;1.45;;;1.08;;
58659;SDS011;44429;45.110;20.622;2022-11-23T03:54:36;1.00;;;0.55;;
58659;SDS011;44429;45.110;20.622;2022-11-23T03:57:03;1.05;;;0.20;;
58659;SDS011;44429;45.110;20.622;2022-11-23T03:59:29;1.85;;;0.65;;
58659;SDS011;44429;45.110;20.622;2022-11-23T04:01:55;2.03;;;0.82;;
58659;SDS011;44429;45.110;20.622;2022-11-23T04:04:21;0.65;;;0.43;;
58659;SDS011;44429;45.110;20.622;2022-11-23T04:06:47;0.85;;;0.30;;
58659;SDS011;44429;45.110;20.622;2022-11-23T04:09:14;1.95;;;0.50;;
58659;SDS011;44429;45.110;20.622;2022-11-23T04:11:40;6.45;;;1.00;;
58659;SDS011;44429;45.110;20.622;2022-11-23T04:14:06;5.93;;;0.98;;
58659;SDS011;44429;45.110;20.622;2022-11-23T04:16:32;1.10;;;0.65;;
58659;SDS011;44429;45.110;20.622;2022-11-23T04:18:58;1.63;;;0.75;;
58659;SDS011;44429;45.110;20.622;2022-11-23T04:21:24;1.55;;;0.63;;
58659;SDS011;44429;45.110;20.622;2022-11-23T04:23:50;0.75;;;0.20;;
58659;SDS011;44429;45.110;20.622;2022-11-23T04:26:16;0.90;;;0.68;;
58659;SDS011;44429;45.110;20.622;2022-11-23T04:28:42;1.15;;;0.32;;
58659;SDS011;44429;45.110;20.622;2022-11-23T04:31:08;0.50;;;0.17;;
58659;SDS011;44429;45.110;20.622;2022-11-23T04:33:35;1.95;;;0.90;;
58659;SDS011;44429;45.110;20.622;2022-11-23T04:36:01;1.65;;;0.70;;
58659;SDS011;44429;45.110;20.622;2022-11-23T04:38:27;0.32;;;0.20;;
58659;SDS011;44429;45.110;20.622;2022-11-23T04:40:53;3.10;;;1.23;;
58659;SDS011;44429;45.110;20.622;2022-11-23T04:43:19;0.30;;;0.05;;
58659;SDS011;44429;45.110;20.622;2022-11-23T04:45:45;3.20;;;1.13;;
58659;SDS011;44429;45.110;20.622;2022-11-23T04:48:11;1.77;;;0.75;;
58659;SDS011;44429;45.110;20.622;2022-11-23T04:50:37;0.55;;;0.20;;
58659;SDS011;44429;45.110;20.622;2022-11-23T04:53:05;2.75;;;1.00;;
58659;SDS011;44429;45.110;20.622;2022-11-23T04:55:31;2.30;;;0.68;;
58659;SDS011;44429;45.110;20.622;2022-11-23T04:57:57;4.32;;;1.33;;
58659;SDS011;44429;45.110;20.622;2022-11-23T05:00:24;5.70;;;0.95;;
58659;SDS011;44429;45.110;20.622;2022-11-23T05:02:50;1.70;;;0.77;;
58659;SDS011;44429;45.110;20.622;2022-11-23T05:05:16;1.02;;;0.52;;
58659;SDS011;44429;45.110;20.622;2022-11-23T05:07:43;0.45;;;0.30;;
58659;SDS011;44429;45.110;20.622;2022-11-23T05:10:09;2.92;;;0.73;;
58659;SDS011;44429;45.110;20.622;2022-11-23T05:12:35;0.60;;;0.20;;
58659;SDS011;44429;45.110;20.622;2022-11-23T05:15:02;2.65;;;0.80;;
58659;SDS011;44429;45.110;20.622;2022-11-23T05:17:28;0.73;;;0.28;;
58659;SDS011;44429;45.110;20.622;2022-11-23T05:19:54;4.00;;;1.08;;
58659;SDS011;44429;45.110;20.622;2022-11-23T05:22:21;2.60;;;1.17;;
58659;SDS011;44429;45.110;20.622;2022-11-23T05:24:47;1.40;;;0.50;;
58659;SDS011;44429;45.110;20.622;2022-11-23T05:27:13;1.45;;;0.55;;
58659;SDS011;44429;45.110;20.622;2022-11-23T05:29:39;2.03;;;0.52;;
58659;SDS011;44429;45.110;20.622;2022-11-23T05:32:05;0.00;;;0.00;;
58659;SDS011;44429;45.110;20.622;2022-11-23T05:34:31;2.40;;;0.98;;
58659;SDS011;44429;45.110;20.622;2022-11-23T05:36:57;1.65;;;0.65;;
58659;SDS011;44429;45.110;20.622;2022-11-23T05:39:23;3.70;;;0.45;;
58659;SDS011;44429;45.110;20.622;2022-11-23T05:41:50;2.03;;;1.38;;
58659;SDS011;44429;45.110;20.622;2022-11-23T05:44:16;4.30;;;1.45;;
58659;SDS011;44429;45.110;20.622;2022-11-23T05:46:42;1.50;;;0.68;;
58659;SDS011;44429;45.110;20.622;2022-11-23T05:49:09;4.47;;;1.02;;
58659;SDS011;44429;45.110;20.622;2022-11-23T05:51:35;2.92;;;1.00;;
58659;SDS011;44429;45.110;20.622;2022-11-23T05:54:01;1.38;;;0.57;;
58659;SDS011;44429;45.110;20.622;2022-11-23T05:56:27;3.17;;;1.33;;
58659;SDS011;44429;45.110;20.622;2022-11-23T05:58:56;1.88;;;1.00;;
58659;SDS011;44429;45.110;20.622;2022-11-23T06:01:22;2.05;;;0.80;;
58659;SDS011;44429;45.110;20.622;2022-11-23T06:03:49;0.95;;;0.30;;
58659;SDS011;44429;45.110;20.622;2022-11-23T06:06:15;0.82;;;0.25;;
58659;SDS011;44429;45.110;20.622;2022-11-23T06:08:41;0.47;;;0.20;;
58659;SDS011;44429;45.110;20.622;2022-11-23T06:11:07;1.42;;;0.82;;
58659;SDS011;44429;45.110;20.622;2022-11-23T06:13:33;2.35;;;0.73;;
58659;SDS011;44429;45.110;20.622;2022-11-23T06:15:59;0.10;;;0.10;;
58659;SDS011;44429;45.110;20.622;2022-11-23T06:18:25;1.45;;;0.68;;
58659;SDS011;44429;45.110;20.622;2022-11-23T06:20:51;1.75;;;1.33;;
58659;SDS011;44429;45.110;20.622;2022-11-23T06:23:17;3.33;;;1.15;;
58659;SDS011;44429;45.110;20.622;2022-11-23T06:25:43;8.73;;;3.95;;
58659;SDS011;44429;45.110;20.622;2022-11-23T06:28:09;1.63;;;0.82;;
58659;SDS011;44429;45.110;20.622;2022-11-23T06:30:36;2.58;;;1.10;;
58659;SDS011;44429;45.110;20.622;2022-11-23T06:33:02;3.78;;;1.80;;
58659;SDS011;44429;45.110;20.622;2022-11-23T06:35:28;1.75;;;1.10;;
58659;SDS011;44429;45.110;20.622;2022-11-23T06:37:54;0.63;;;0.22;;
58659;SDS011;44429;45.110;20.622;2022-11-23T06:40:20;2.88;;;1.42;;
58659;SDS011;44429;45.110;20.622;2022-11-23T06:42:46;3.28;;;1.00;;
58659;SDS011;44429;45.110;20.622;2022-11-23T06:45:13;12.63;;;3.20;;
58659;SDS011;44429;45.110;20.622;2022-11-23T06:47:39;3.22;;;1.45;;
58659;SDS011;44429;45.110;20.622;2022-11-23T06:50:05;4.15;;;1.17;;
58659;SDS011;44429;45.110;20.622;2022-11-23T06:52:31;3.40;;;1.33;;
58659;SDS011;44429;45.110;20.622;2022-11-23T06:54:57;3.22;;;1.50;;
58659;SDS011;44429;45.110;20.622;2022-11-23T06:57:24;2.58;;;1.23;;
58659;SDS011;44429;45.110;20.622;2022-11-23T06:59:50;1.27;;;0.82;;
58659;SDS011;44429;45.110;20.622;2022-11-23T07:02:16;1.27;;;0.52;;
58659;SDS011;44429;45.110;20.622;2022-11-23T07:04:42;0.93;;;0.30;;
58659;SDS011;44429;45.110;20.622;2022-11-23T07:07:08;0.52;;;0.20;;
58659;SDS011;44429;45.110;20.622;2022-11-23T07:09:34;0.73;;;0.47;;
58659;SDS011;44429;45.110;20.622;2022-11-23T07:12:00;1.85;;;0.75;;
58659;SDS011;44429;45.110;20.622;2022-11-23T07:14:27;1.05;;;0.70;;
58659;SDS011;44429;45.110;20.622;2022-11-23T07:16:53;3.03;;;1.42;;
58659;SDS011;44429;45.110;20.622;2022-11-23T07:19:19;2.78;;;0.93;;
58659;SDS011;44429;45.110;20.622;2022-11-23T07:21:45;1.85;;;0.75;;
58659;SDS011;44429;45.110;20.622;2022-11-23T07:24:11;2.88;;;0.60;;
58659;SDS011;44429;45.110;20.622;2022-11-23T07:26:37;2.70;;;0.63;;
58659;SDS011;44429;45.110;20.622;2022-11-23T07:29:03;5.78;;;2.67;;
58659;SDS011;44429;45.110;20.622;2022-11-23T07:31:29;7.97;;;1.42;;
58659;SDS011;44429;45.110;20.622;2022-11-23T07:33:55;2.80;;;1.27;;
58659;SDS011;44429;45.110;20.622;2022-11-23T07:36:21;1.10;;;0.57;;
58659;SDS011;44429;45.110;20.622;2022-11-23T07:38:47;7.10;;;2.25;;
58659;SDS011;44429;45.110;20.622;2022-11-23T07:41:13;2.55;;;1.40;;
58659;SDS011;44429;45.110;20.622;2022-11-23T07:43:39;4.65;;;1.65;;
58659;SDS011;44429;45.110;20.622;2022-11-23T07:46:06;5.10;;;1.38;;
58659;SDS011;44429;45.110;20.622;2022-11-23T07:48:32;7.45;;;2.58;;
58659;SDS011;44429;45.110;20.622;2022-11-23T07:50:58;1.40;;;0.82;;
58659;SDS011;44429;45.110;20.622;2022-11-23T07:53:24;2.63;;;1.17;;
58659;SDS011;44429;45.110;20.622;2022-11-23T07:55:53;1.55;;;0.60;;
58659;SDS011;44429;45.110;20.622;2022-11-23T07:58:20;1.77;;;0.80;;
58659;SDS011;44429;45.110;20.622;2022-11-23T08:00:46;1.75;;;0.60;;
58659;SDS011;44429;45.110;20.622;2022-11-23T08:03:12;1.00;;;0.40;;
58659;SDS011;44429;45.110;20.622;2022-11-23T08:05:38;0.10;;;0.10;;
58659;SDS011;44429;45.110;20.622;2022-11-23T08:08:05;4.93;;;1.05;;
58659;SDS011;44429;45.110;20.622;2022-11-23T08:10:31;1.65;;;0.65;;
58659;SDS011;44429;45.110;20.622;2022-11-23T08:12:57;0.95;;;0.60;;
58659;SDS011;44429;45.110;20.622;2022-11-23T08:15:24;5.28;;;1.02;;
58659;SDS011;44429;45.110;20.622;2022-11-23T08:17:58;1.65;;;0.40;;
58659;SDS011;44429;45.110;20.622;2022-11-23T08:20:25;2.55;;;0.77;;
58659;SDS011;44429;45.110;20.622;2022-11-23T08:22:51;1.15;;;0.30;;
58659;SDS011;44429;45.110;20.622;2022-11-23T08:25:23;0.52;;;0.17;;
58659;SDS011;44429;45.110;20.622;2022-11-23T08:27:59;0.90;;;0.40;;
58659;SDS011;44429;45.110;20.622;2022-11-23T08:30:26;3.20;;;1.27;;
58659;SDS011;44429;45.110;20.622;2022-11-23T08:32:52;0.55;;;0.25;;
58659;SDS011;44429;45.110;20.622;2022-11-23T08:35:19;2.25;;;0.88;;
58659;SDS011;44429;45.110;20.622;2022-11-23T08:37:45;5.50;;;2.50;;
58659;SDS011;44429;45.110;20.622;2022-11-23T08:40:11;4.57;;;1.88;;
58659;SDS011;44429;45.110;20.622;2022-11-23T08:42:37;3.03;;;1.15;;
58659;SDS011;44429;45.110;20.622;2022-11-23T08:45:03;8.63;;;3.30;;
58659;SDS011;44429;45.110;20.622;2022-11-23T08:47:31;12.85;;;3.65;;
58659;SDS011;44429;45.110;20.622;2022-11-23T08:49:57;1.25;;;0.80;;
58659;SDS011;44429;45.110;20.622;2022-11-23T08:52:23;3.22;;;1.65;;
58659;SDS011;44429;45.110;20.622;2022-11-23T08:54:49;2.13;;;0.90;;
58659;SDS011;44429;45.110;20.622;2022-11-23T08:57:15;3.15;;;1.02;;
58659;SDS011;44429;45.110;20.622;2022-11-23T08:59:41;3.00;;;1.02;;
58659;SDS011;44429;45.110;20.622;2022-11-23T09:02:11;3.35;;;0.85;;
58659;SDS011;44429;45.110;20.622;2022-11-23T09:04:38;1.75;;;0.70;;
58659;SDS011;44429;45.110;20.622;2022-11-23T09:07:04;0.65;;;0.52;;
58659;SDS011;44429;45.110;20.622;2022-11-23T09:09:31;2.10;;;0.80;;
58659;SDS011;44429;45.110;20.622;2022-11-23T09:11:57;3.53;;;0.68;;
58659;SDS011;44429;45.110;20.622;2022-11-23T09:14:23;1.67;;;0.70;;
58659;SDS011;44429;45.110;20.622;2022-11-23T09:16:51;1.27;;;0.50;;
58659;SDS011;44429;45.110;20.622;2022-11-23T09:19:17;2.42;;;0.73;;
58659;SDS011;44429;45.110;20.622;2022-11-23T09:21:43;0.65;;;0.22;;
58659;SDS011;44429;45.110;20.622;2022-11-23T09:24:10;2.35;;;0.75;;
58659;SDS011;44429;45.110;20.622;2022-11-23T09:26:36;7.35;;;1.90;;
58659;SDS011;44429;45.110;20.622;2022-11-23T09:29:03;4.40;;;1.52;;
58659;SDS011;44429;45.110;20.622;2022-11-23T09:31:29;0.80;;;0.20;;
58659;SDS011;44429;45.110;20.622;2022-11-23T09:33:55;2.60;;;1.13;;
58659;SDS011;44429;45.110;20.622;2022-11-23T09:36:22;2.28;;;1.25;;
58659;SDS011;44429;45.110;20.622;2022-11-23T09:38:48;2.75;;;1.08;;
58659;SDS011;44429;45.110;20.622;2022-11-23T09:43:53;3.20;;;1.23;;
58659;SDS011;44429;45.110;20.622;2022-11-23T09:49:10;4.60;;;0.82;;
58659;SDS011;44429;45.110;20.622;2022-11-23T09:51:37;1.08;;;0.57;;
58659;SDS011;44429;45.110;20.622;2022-11-23T09:54:08;2.78;;;1.20;;
58659;SDS011;44429;45.110;20.622;2022-11-23T09:56:35;2.50;;;0.75;;
58659;SDS011;44429;45.110;20.622;2022-11-23T09:59:14;3.75;;;0.90;;
58659;SDS011;44429;45.110;20.622;2022-11-23T10:01:41;8.68;;;4.38;;
58659;SDS011;44429;45.110;20.622;2022-11-23T10:04:14;2.50;;;0.70;;
58659;SDS011;44429;45.110;20.622;2022-11-23T10:06:42;8.75;;;2.42;;
58659;SDS011;44429;45.110;20.622;2022-11-23T10:17:01;2.38;;;1.15;;
58659;SDS011;44429;45.110;20.622;2022-11-23T10:24:44;1.23;;;0.50;;
58659;SDS011;44429;45.110;20.622;2022-11-23T10:27:14;2.35;;;0.85;;
58659;SDS011;44429;45.110;20.622;2022-11-23T10:29:41;3.42;;;1.02;;
58659;SDS011;44429;45.110;20.622;2022-11-23T10:32:51;4.70;;;1.20;;
58659;SDS011;44429;45.110;20.622;2022-11-23T10:35:13;3.35;;;1.52;;
58659;SDS011;44429;45.110;20.622;2022-11-23T10:37:39;9.52;;;1.70;;
58659;SDS011;44429;45.110;20.622;2022-11-23T10:45:04;11.00;;;3.20;;
58659;SDS011;44429;45.110;20.622;2022-11-23T10:47:34;5.40;;;1.88;;
58659;SDS011;44429;45.110;20.622;2022-11-23T10:50:02;2.45;;;1.02;;
58659;SDS011;44429;45.110;20.622;2022-11-23T10:52:30;3.10;;;0.98;;
58659;SDS011;44429;45.110;20.622;2022-11-23T10:54:57;1.55;;;0.50;;
58659;SDS011;44429;45.110;20.622;2022-11-23T10:57:40;2.90;;;0.85;;
58659;SDS011;44429;45.110;20.622;2022-11-23T11:07:50;1.40;;;0.50;;
58659;SDS011;44429;45.110;20.622;2022-11-23T11:12:55;1.58;;;0.60;;
58659;SDS011;44429;45.110;20.622;2022-11-23T11:15:21;1.88;;;0.77;;
58659;SDS011;44429;45.110;20.622;2022-11-23T11:17:53;0.93;;;0.30;;
58659;SDS011;44429;45.110;20.622;2022-11-23T11:22:53;4.15;;;1.15;;
58659;SDS011;44429;45.110;20.622;2022-11-23T11:25:29;4.75;;;1.35;;
58659;SDS011;44429;45.110;20.622;2022-11-23T11:27:56;4.78;;;1.63;;
58659;SDS011;44429;45.110;20.622;2022-11-23T11:30:23;10.98;;;2.47;;
58659;SDS011;44429;45.110;20.622;2022-11-23T11:35:30;8.32;;;3.33;;
58659;SDS011;44429;45.110;20.622;2022-11-23T11:37:59;18.13;;;3.85;;
58659;SDS011;44429;45.110;20.622;2022-11-23T11:40:28;5.63;;;2.60;;
58659;SDS011;44429;45.110;20.622;2022-11-23T11:43:03;4.93;;;2.00;;
58659;SDS011;44429;45.110;20.622;2022-11-23T11:45:31;36.08;;;11.40;;
58659;SDS011;44429;45.110;20.622;2022-11-23T11:50:30;4.35;;;1.95;;
58659;SDS011;44429;45.110;20.622;2022-11-23T11:52:59;4.93;;;2.38;;
58659;SDS011;44429;45.110;20.622;2022-11-23T11:55:33;5.68;;;1.70;;
58659;SDS011;44429;45.110;20.622;2022-11-23T11:58:02;5.55;;;2.10;;
58659;SDS011;44429;45.110;20.622;2022-11-23T12:00:28;3.90;;;1.08;;
58659;SDS011;44429;45.110;20.622;2022-11-23T12:05:47;3.30;;;1.48;;
58659;SDS011;44429;45.110;20.622;2022-11-23T12:08:34;3.67;;;1.08;;
58659;SDS011;44429;45.110;20.622;2022-11-23T12:11:05;8.25;;;1.35;;
58659;SDS011;44429;45.110;20.622;2022-11-23T12:13:33;4.70;;;2.25;;
58659;SDS011;44429;45.110;20.622;2022-11-23T12:16:03;4.32;;;1.35;;
58659;SDS011;44429;45.110;20.622;2022-11-23T12:21:36;3.42;;;1.40;;
58659;SDS011;44429;45.110;20.622;2022-11-23T12:26:53;7.15;;;1.92;;
58659;SDS011;44429;45.110;20.622;2022-11-23T12:29:23;3.75;;;1.40;;
58659;SDS011;44429;45.110;20.622;2022-11-23T12:37:09;11.10;;;3.90;;
58659;SDS011;44429;45.110;20.622;2022-11-23T12:39:57;10.05;;;2.72;;
58659;SDS011;44429;45.110;20.622;2022-11-23T12:42:29;5.50;;;3.03;;
58659;SDS011;44429;45.110;20.622;2022-11-23T12:55:22;24.17;;;7.03;;
58659;SDS011;44429;45.110;20.622;2022-11-23T12:57:58;23.13;;;6.70;;
58659;SDS011;44429;45.110;20.622;2022-11-23T13:00:27;32.97;;;12.52;;
58659;SDS011;44429;45.110;20.622;2022-11-23T13:03:01;33.67;;;14.13;;
58659;SDS011;44429;45.110;20.622;2022-11-23T13:05:54;33.15;;;14.32;;
58659;SDS011;44429;45.110;20.622;2022-11-23T13:23:35;4.03;;;1.50;;
58659;SDS011;44429;45.110;20.622;2022-11-23T13:28:40;4.80;;;1.52;;
58659;SDS011;44429;45.110;20.622;2022-11-23T13:33:42;1.73;;;0.68;;
58659;SDS011;44429;45.110;20.622;2022-11-23T13:36:09;1.90;;;0.70;;
58659;SDS011;44429;45.110;20.622;2022-11-23T13:38:37;4.70;;;1.35;;
58659;SDS011;44429;45.110;20.622;2022-11-23T13:41:55;7.97;;;1.30;;
58659;SDS011;44429;45.110;20.622;2022-11-23T13:43:50;10.10;;;2.88;;
58659;SDS011;44429;45.110;20.622;2022-11-23T13:46:25;8.77;;;2.13;;
58659;SDS011;44429;45.110;20.622;2022-11-23T13:48:53;36.60;;;10.38;;
58659;SDS011;44429;45.110;20.622;2022-11-23T13:51:41;11.65;;;4.85;;
58659;SDS011;44429;45.110;20.622;2022-11-23T13:54:20;11.77;;;4.72;;
58659;SDS011;44429;45.110;20.622;2022-11-23T13:56:58;13.43;;;5.63;;
58659;SDS011;44429;45.110;20.622;2022-11-23T13:59:30;24.23;;;12.65;;
58659;SDS011;44429;45.110;20.622;2022-11-23T14:04:28;13.13;;;6.00;;
58659;SDS011;44429;45.110;20.622;2022-11-23T14:12:20;17.83;;;9.95;;
58659;SDS011;44429;45.110;20.622;2022-11-23T14:24:55;13.35;;;4.97;;
58659;SDS011;44429;45.110;20.622;2022-11-23T14:32:51;4.05;;;1.95;;
58659;SDS011;44429;45.110;20.622;2022-11-23T14:42:55;12.65;;;4.70;;
58659;SDS011;44429;45.110;20.622;2022-11-23T14:45:31;5.63;;;2.08;;
58659;SDS011;44429;45.110;20.622;2022-11-23T14:50:43;4.55;;;1.83;;
58659;SDS011;44429;45.110;20.622;2022-11-23T14:53:18;5.85;;;2.63;;
58659;SDS011;44429;45.110;20.622;2022-11-23T14:55:46;2.83;;;1.17;;
58659;SDS011;44429;45.110;20.622;2022-11-23T14:58:12;4.47;;;2.42;;
58659;SDS011;44429;45.110;20.622;2022-11-23T15:00:40;9.48;;;2.22;;
58659;SDS011;44429;45.110;20.622;2022-11-23T15:03:17;2.30;;;0.73;;
58659;SDS011;44429;45.110;20.622;2022-11-23T15:05:52;11.73;;;2.45;;
58659;SDS011;44429;45.110;20.622;2022-11-23T15:08:22;8.75;;;1.00;;
58659;SDS011;44429;45.110;20.622;2022-11-23T15:13:25;3.58;;;1.33;;
58659;SDS011;44429;45.110;20.622;2022-11-23T15:15:52;7.95;;;1.38;;
58659;SDS011;44429;45.110;20.622;2022-11-23T15:18:30;3.28;;;0.90;;
58659;SDS011;44429;45.110;20.622;2022-11-23T15:21:04;6.15;;;2.05;;
58659;SDS011;44429;45.110;20.622;2022-11-23T15:23:33;4.88;;;1.95;;
58659;SDS011;44429;45.110;20.622;2022-11-23T15:26:04;6.13;;;2.67;;
58659;SDS011;44429;45.110;20.622;2022-11-23T15:28:32;3.58;;;1.92;;
58659;SDS011;44429;45.110;20.622;2022-11-23T15:30:58;6.13;;;1.80;;
58659;SDS011;44429;45.110;20.622;2022-11-23T15:33:24;4.75;;;1.33;;
58659;SDS011;44429;45.110;20.622;2022-11-23T15:35:52;2.60;;;0.77;;
58659;SDS011;44429;45.110;20.622;2022-11-23T15:38:19;4.63;;;0.98;;
58659;SDS011;44429;45.110;20.622;2022-11-23T15:40:46;1.45;;;0.70;;
58659;SDS011;44429;45.110;20.622;2022-11-23T15:43:13;2.17;;;1.02;;
58659;SDS011;44429;45.110;20.622;2022-11-23T15:50:47;2.92;;;0.73;;
58659;SDS011;44429;45.110;20.622;2022-11-23T15:53:15;3.13;;;1.27;;
58659;SDS011;44429;45.110;20.622;2022-11-23T15:55:42;1.75;;;0.85;;
58659;SDS011;44429;45.110;20.622;2022-11-23T15:58:08;1.33;;;0.60;;
58659;SDS011;44429;45.110;20.622;2022-11-23T16:00:35;2.60;;;0.85;;
58659;SDS011;44429;45.110;20.622;2022-11-23T16:05:45;2.53;;;1.17;;
58659;SDS011;44429;45.110;20.622;2022-11-23T16:08:32;4.43;;;1.38;;
58659;SDS011;44429;45.110;20.622;2022-11-23T16:10:59;10.40;;;3.40;;
58659;SDS011;44429;45.110;20.622;2022-11-23T16:13:34;6.70;;;3.13;;
58659;SDS011;44429;45.110;20.622;2022-11-23T16:16:01;2.42;;;1.48;;
58659;SDS011;44429;45.110;20.622;2022-11-23T16:18:30;3.05;;;1.58;;
58659;SDS011;44429;45.110;20.622;2022-11-23T16:21:00;6.45;;;2.22;;
58659;SDS011;44429;45.110;20.622;2022-11-23T16:23:40;3.10;;;1.45;;
58659;SDS011;44429;45.110;20.622;2022-11-23T16:26:08;12.90;;;4.90;;
58659;SDS011;44429;45.110;20.622;2022-11-23T16:28:36;17.77;;;10.45;;
58659;SDS011;44429;45.110;20.622;2022-11-23T16:31:03;6.15;;;2.58;;
58659;SDS011;44429;45.110;20.622;2022-11-23T16:33:29;6.32;;;3.13;;
58659;SDS011;44429;45.110;20.622;2022-11-23T16:35:55;8.60;;;2.95;;
58659;SDS011;44429;45.110;20.622;2022-11-23T16:38:21;26.80;;;6.72;;
58659;SDS011;44429;45.110;20.622;2022-11-23T16:40:48;13.68;;;4.35;;
58659;SDS011;44429;45.110;20.622;2022-11-23T16:43:14;14.15;;;7.15;;
58659;SDS011;44429;45.110;20.622;2022-11-23T16:45:42;38.33;;;12.27;;
58659;SDS011;44429;45.110;20.622;2022-11-23T16:50:50;23.42;;;7.25;;
58659;SDS011;44429;45.110;20.622;2022-11-23T16:53:17;10.55;;;4.85;;
58659;SDS011;44429;45.110;20.622;2022-11-23T16:55:46;4.05;;;1.50;;